Deo Volente — PHFJ — position and weather

sailwx.info

Track history (hours):
 
Tides and Currents Weather Stations Pressure Air Temp Water Temp Dewpoint Dewpoint Depression Visibility Wind Speed Wind Dir Waves Ship Positions

Deo Volente

Last reported at 2015-Apr-01 07:22 UTC. Time now 2015-Apr-01 16:34 UTC.
Position N 40°35' E 014°35'.

Length 105 m; draft 5.2 m.

Type: Cargo ship. MMSI: 246518000.

Date/timePositionNaut miles runAvg speedWind from/ knotsBaromVisibWave heightAir tempDewpointWater temp
2015-Apr-01 07:22N 40°35' E 014°35'1011.8
2015-Apr-01 06:33N 40°32' E 014°23'1312.7
2015-Apr-01 05:33N 40°27' E 014°08'1312.7
2015-Apr-01 04:32N 40°22' E 013°52'23113.6
2015-Mar-31 11:33N 38°55' E 009°15'1716.5
2015-Mar-31 10:33N 38°52' E 008°54'1716.5
2015-Mar-31 09:32N 38°50' E 008°33'2216.7
2015-Mar-31 08:13N 38°53' E 008°05'22915.6
2015-Mar-30 17:33N 39°49' E 003°18'7 7.0
2015-Mar-30 16:33N 39°50' E 003°09'0 0.0
2015-Mar-30 15:33N 39°50' E 003°09'0 0.0
2015-Mar-30 14:33N 39°50' E 003°09'0 0.0
2015-Mar-30 13:33N 39°50' E 003°09'0 0.0
2015-Mar-30 12:33N 39°50' E 003°09'0 0.0
2015-Mar-30 11:33N 39°50' E 003°09'0 0.0
2015-Mar-30 10:33N 39°50' E 003°09'0 0.0
2015-Mar-30 09:32N 39°50' E 003°09'0 0.0
2015-Mar-30 08:33N 39°50' E 003°09'0 0.0
2015-Mar-30 07:33N 39°50' E 003°09'0 0.0
2015-Mar-30 06:33N 39°50' E 003°09'0 0.0
2015-Mar-30 05:33N 39°50' E 003°09'0 0.0
2015-Mar-30 04:33N 39°50' E 003°09'0 0.0
2015-Mar-30 03:33N 39°50' E 003°09'0 0.0
2015-Mar-30 02:33N 39°50' E 003°09'0 0.0
2015-Mar-30 01:33N 39°50' E 003°09'0 0.0
2015-Mar-30 00:33N 39°50' E 003°09'0 0.0
2015-Mar-29 23:33N 39°50' E 003°09'0 0.0
2015-Mar-29 22:33N 39°50' E 003°09'0 0.0
2015-Mar-29 21:33N 39°50' E 003°09'0 0.0
2015-Mar-29 20:33N 39°50' E 003°09'0 0.0
2015-Mar-29 19:33N 39°50' E 003°09'0 0.0
2015-Mar-29 18:33N 39°50' E 003°09'0 0.0
2015-Mar-29 17:33N 39°50' E 003°09'0 0.0
2015-Mar-29 16:33N 39°50' E 003°09'0 0.0
2015-Mar-29 15:33N 39°50' E 003°09'0 0.0
2015-Mar-29 14:33N 39°50' E 003°09'0 0.0
2015-Mar-29 13:33N 39°50' E 003°09'0 0.0
2015-Mar-29 12:33N 39°50' E 003°09'0 0.0
2015-Mar-29 11:33N 39°50' E 003°09'0 0.0
2015-Mar-29 10:33N 39°50' E 003°09'9 4.4
2015-Mar-29 08:26N 39°59' E 003°05'1314.4
2015-Mar-29 07:33N 39°54' E 002°49'1515.1
2015-Mar-29 06:33N 39°46' E 002°33'1515.0
2015-Mar-29 05:33N 39°37' E 002°17'1614.8
2015-Mar-29 04:28N 39°28' E 001°60'3015.2
2015-Mar-29 02:30N 39°10' E 001°29'9015.2
2015-Mar-28 20:33N 38°07' E 000°07'1615.2
2015-Mar-28 19:31N 37°55' W 000°06'1414.9
2015-Mar-28 18:33N 37°44' W 000°19'1514.8
2015-Mar-28 17:33N 37°33' W 000°31'1514.8
2015-Mar-28 16:33N 37°23' W 000°45'1515.1
2015-Mar-28 15:33N 37°13' W 000°59'22014.7
2015-Mar-28 00:33N 35°59' W 005°16'22913.4
2015-Mar-27 07:30N 37°24' W 009°41'6314.9
2015-Mar-27 03:16N 38°25' W 009°59'1014.6
2015-Mar-27 02:33N 38°35' W 010°03'2114.7
2015-Mar-27 01:09N 38°55' W 010°05'73014.4
2015-Mar-24 22:29N 50°03' W 003°10'1313.7
2015-Mar-24 21:33N 50°10' W 002°54'2914.7
2015-Mar-24 19:33N 50°27' W 002°16'1716.6
2015-Mar-24 18:34N 50°37' W 001°55'6 6.3
2015-Mar-24 17:33N 50°42' W 001°60'0 0.0
2015-Mar-24 16:33N 50°42' W 001°60'0 0.0
2015-Mar-24 15:33N 50°42' W 001°60'0 0.0
2015-Mar-24 14:33N 50°42' W 001°60'0 0.0
2015-Mar-24 13:33N 50°42' W 001°60'0 0.0
2015-Mar-24 12:33N 50°42' W 001°60'0 0.0
2015-Mar-24 11:33N 50°42' W 001°60'0 0.0
2015-Mar-24 10:33N 50°42' W 001°60'0 0.0
2015-Mar-24 09:33N 50°42' W 001°60'0 0.0
2015-Mar-24 08:34N 50°42' W 001°60'0 0.0
2015-Mar-24 07:33N 50°42' W 001°60'4 3.8
2015-Mar-24 06:33N 50°40' W 001°55'1110.5
2015-Mar-24 05:33N 50°36' W 001°40'1312.7
2015-Mar-24 04:33N 50°32' W 001°21'1616.4
2015-Mar-24 03:33N 50°32' W 000°55'1717.3
2015-Mar-24 02:33N 50°32' W 000°28'1716.6
2015-Mar-24 01:33N 50°33' W 000°02'1515.3
2015-Mar-24 00:33N 50°36' E 000°21'1414.2
2015-Mar-23 23:34N 50°42' E 000°42'1615.5
2015-Mar-23 22:33N 50°51' E 001°02'1717.7
2015-Mar-23 21:34N 51°02' E 001°23'1918.9
2015-Mar-23 20:34N 51°15' E 001°46'1716.9
2015-Mar-23 19:33N 51°28' E 002°02'1515.4
2015-Mar-23 18:33N 51°40' E 002°19'5613.9
2015-Mar-23 14:33N 52°03' E 003°41'1514.9
2015-Mar-23 13:33N 51°59' E 004°04'1211.6
2015-Mar-23 12:33N 51°54' E 004°21'0 0.2
2015-Mar-23 11:33N 51°54' E 004°21'0 0.0
2015-Mar-23 10:33N 51°54' E 004°21'0 0.0
2015-Mar-23 09:33N 51°54' E 004°21'0 0.0
2015-Mar-23 08:33N 51°54' E 004°21'0 0.0
2015-Mar-23 07:33N 51°54' E 004°21'0 0.0
2015-Mar-23 06:34N 51°54' E 004°21'0 0.0
2015-Mar-23 05:33N 51°54' E 004°21'0 0.0
2015-Mar-23 04:33N 51°54' E 004°21'0 0.0
2015-Mar-23 03:33N 51°54' E 004°21'0 0.0
2015-Mar-23 02:33N 51°54' E 004°21'0 0.0
2015-Mar-23 01:33N 51°54' E 004°21'0 0.0
2015-Mar-23 00:33N 51°54' E 004°21'0 0.0
2015-Mar-22 23:33N 51°54' E 004°21'0 0.0
2015-Mar-22 22:33N 51°54' E 004°21'0 0.0
2015-Mar-22 21:33N 51°54' E 004°21'0 0.0
2015-Mar-22 20:33N 51°54' E 004°21'0 0.0
2015-Mar-22 19:33N 51°54' E 004°21'0 0.0
2015-Mar-22 18:33N 51°54' E 004°21'0 0.0
2015-Mar-22 17:33N 51°54' E 004°21'0 0.0
2015-Mar-22 16:33N 51°54' E 004°21'0 0.0
2015-Mar-22 15:33N 51°54' E 004°21'0 0.0
2015-Mar-22 14:33N 51°54' E 004°21'0 0.0
2015-Mar-22 13:33N 51°54' E 004°21'0 0.0
2015-Mar-22 12:33N 51°54' E 004°21'0 0.0
2015-Mar-22 11:33N 51°54' E 004°21'0 0.0
2015-Mar-22 10:33N 51°54' E 004°21'0 0.0
2015-Mar-22 09:33N 51°54' E 004°21'0 0.0
2015-Mar-22 08:33N 51°54' E 004°21'0 0.0
2015-Mar-22 07:33N 51°54' E 004°21'  
Track history (hours):
 
Tides and Currents Weather Stations Pressure Air Temp Water Temp Dewpoint Dewpoint Depression Visibility Wind Speed Wind Dir Waves Ship Positions

Deo Volente

Last reported at 2015-Apr-01 07:22 UTC. Time now 2015-Apr-01 16:34 UTC.
Position N 40°35' E 014°35'.

Length 105 m; draft 5.2 m.

Type: Cargo ship. MMSI: 246518000.

Date/timePositionNaut miles runAvg speedWind from/ knotsBaromVisibWave heightAir tempDewpointWater temp
2015-Apr-01 07:22N 40°35' E 014°35'1011.8
2015-Apr-01 06:33N 40°32' E 014°23'1312.7
2015-Apr-01 05:33N 40°27' E 014°08'1312.7
2015-Apr-01 04:32N 40°22' E 013°52'23113.6
2015-Mar-31 11:33N 38°55' E 009°15'1716.5
2015-Mar-31 10:33N 38°52' E 008°54'1716.5
2015-Mar-31 09:32N 38°50' E 008°33'2216.7
2015-Mar-31 08:13N 38°53' E 008°05'22915.6
2015-Mar-30 17:33N 39°49' E 003°18'7 7.0
2015-Mar-30 16:33N 39°50' E 003°09'0 0.0
2015-Mar-30 15:33N 39°50' E 003°09'0 0.0
2015-Mar-30 14:33N 39°50' E 003°09'0 0.0
2015-Mar-30 13:33N 39°50' E 003°09'0 0.0
2015-Mar-30 12:33N 39°50' E 003°09'0 0.0
2015-Mar-30 11:33N 39°50' E 003°09'0 0.0
2015-Mar-30 10:33N 39°50' E 003°09'0 0.0
2015-Mar-30 09:32N 39°50' E 003°09'0 0.0
2015-Mar-30 08:33N 39°50' E 003°09'0 0.0
2015-Mar-30 07:33N 39°50' E 003°09'0 0.0
2015-Mar-30 06:33N 39°50' E 003°09'0 0.0
2015-Mar-30 05:33N 39°50' E 003°09'0 0.0
2015-Mar-30 04:33N 39°50' E 003°09'0 0.0
2015-Mar-30 03:33N 39°50' E 003°09'0 0.0
2015-Mar-30 02:33N 39°50' E 003°09'0 0.0
2015-Mar-30 01:33N 39°50' E 003°09'0 0.0
2015-Mar-30 00:33N 39°50' E 003°09'0 0.0
2015-Mar-29 23:33N 39°50' E 003°09'0 0.0
2015-Mar-29 22:33N 39°50' E 003°09'0 0.0
2015-Mar-29 21:33N 39°50' E 003°09'0 0.0
2015-Mar-29 20:33N 39°50' E 003°09'0 0.0
2015-Mar-29 19:33N 39°50' E 003°09'0 0.0
2015-Mar-29 18:33N 39°50' E 003°09'0 0.0
2015-Mar-29 17:33N 39°50' E 003°09'0 0.0
2015-Mar-29 16:33N 39°50' E 003°09'0 0.0
2015-Mar-29 15:33N 39°50' E 003°09'0 0.0
2015-Mar-29 14:33N 39°50' E 003°09'0 0.0
2015-Mar-29 13:33N 39°50' E 003°09'0 0.0
2015-Mar-29 12:33N 39°50' E 003°09'0 0.0
2015-Mar-29 11:33N 39°50' E 003°09'0 0.0
2015-Mar-29 10:33N 39°50' E 003°09'9 4.4
2015-Mar-29 08:26N 39°59' E 003°05'1314.4
2015-Mar-29 07:33N 39°54' E 002°49'1515.1
2015-Mar-29 06:33N 39°46' E 002°33'1515.0
2015-Mar-29 05:33N 39°37' E 002°17'1614.8
2015-Mar-29 04:28N 39°28' E 001°60'3015.2
2015-Mar-29 02:30N 39°10' E 001°29'9015.2
2015-Mar-28 20:33N 38°07' E 000°07'1615.2
2015-Mar-28 19:31N 37°55' W 000°06'1414.9
2015-Mar-28 18:33N 37°44' W 000°19'1514.8
2015-Mar-28 17:33N 37°33' W 000°31'1514.8
2015-Mar-28 16:33N 37°23' W 000°45'1515.1
2015-Mar-28 15:33N 37°13' W 000°59'22014.7
2015-Mar-28 00:33N 35°59' W 005°16'22913.4
2015-Mar-27 07:30N 37°24' W 009°41'6314.9
2015-Mar-27 03:16N 38°25' W 009°59'1014.6
2015-Mar-27 02:33N 38°35' W 010°03'2114.7
2015-Mar-27 01:09N 38°55' W 010°05'73014.4
2015-Mar-24 22:29N 50°03' W 003°10'1313.7
2015-Mar-24 21:33N 50°10' W 002°54'2914.7
2015-Mar-24 19:33N 50°27' W 002°16'1716.6
2015-Mar-24 18:34N 50°37' W 001°55'6 6.3
2015-Mar-24 17:33N 50°42' W 001°60'0 0.0
2015-Mar-24 16:33N 50°42' W 001°60'0 0.0
2015-Mar-24 15:33N 50°42' W 001°60'0 0.0
2015-Mar-24 14:33N 50°42' W 001°60'0 0.0
2015-Mar-24 13:33N 50°42' W 001°60'0 0.0
2015-Mar-24 12:33N 50°42' W 001°60'0 0.0
2015-Mar-24 11:33N 50°42' W 001°60'0 0.0
2015-Mar-24 10:33N 50°42' W 001°60'0 0.0
2015-Mar-24 09:33N 50°42' W 001°60'0 0.0
2015-Mar-24 08:34N 50°42' W 001°60'0 0.0
2015-Mar-24 07:33N 50°42' W 001°60'4 3.8
2015-Mar-24 06:33N 50°40' W 001°55'1110.5
2015-Mar-24 05:33N 50°36' W 001°40'1312.7
2015-Mar-24 04:33N 50°32' W 001°21'1616.4
2015-Mar-24 03:33N 50°32' W 000°55'1717.3
2015-Mar-24 02:33N 50°32' W 000°28'1716.6
2015-Mar-24 01:33N 50°33' W 000°02'1515.3
2015-Mar-24 00:33N 50°36' E 000°21'1414.2
2015-Mar-23 23:34N 50°42' E 000°42'1615.5
2015-Mar-23 22:33N 50°51' E 001°02'1717.7
2015-Mar-23 21:34N 51°02' E 001°23'1918.9
2015-Mar-23 20:34N 51°15' E 001°46'1716.9
2015-Mar-23 19:33N 51°28' E 002°02'1515.4
2015-Mar-23 18:33N 51°40' E 002°19'5613.9
2015-Mar-23 14:33N 52°03' E 003°41'1514.9
2015-Mar-23 13:33N 51°59' E 004°04'1211.6
2015-Mar-23 12:33N 51°54' E 004°21'0 0.2
2015-Mar-23 11:33N 51°54' E 004°21'0 0.0
2015-Mar-23 10:33N 51°54' E 004°21'0 0.0
2015-Mar-23 09:33N 51°54' E 004°21'0 0.0
2015-Mar-23 08:33N 51°54' E 004°21'0 0.0
2015-Mar-23 07:33N 51°54' E 004°21'0 0.0
2015-Mar-23 06:34N 51°54' E 004°21'0 0.0
2015-Mar-23 05:33N 51°54' E 004°21'0 0.0
2015-Mar-23 04:33N 51°54' E 004°21'0 0.0
2015-Mar-23 03:33N 51°54' E 004°21'0 0.0
2015-Mar-23 02:33N 51°54' E 004°21'0 0.0
2015-Mar-23 01:33N 51°54' E 004°21'0 0.0
2015-Mar-23 00:33N 51°54' E 004°21'0 0.0
2015-Mar-22 23:33N 51°54' E 004°21'0 0.0
2015-Mar-22 22:33N 51°54' E 004°21'0 0.0
2015-Mar-22 21:33N 51°54' E 004°21'0 0.0
2015-Mar-22 20:33N 51°54' E 004°21'0 0.0
2015-Mar-22 19:33N 51°54' E 004°21'0 0.0
2015-Mar-22 18:33N 51°54' E 004°21'0 0.0
2015-Mar-22 17:33N 51°54' E 004°21'0 0.0
2015-Mar-22 16:33N 51°54' E 004°21'0 0.0
2015-Mar-22 15:33N 51°54' E 004°21'0 0.0
2015-Mar-22 14:33N 51°54' E 004°21'0 0.0
2015-Mar-22 13:33N 51°54' E 004°21'0 0.0
2015-Mar-22 12:33N 51°54' E 004°21'0 0.0
2015-Mar-22 11:33N 51°54' E 004°21'0 0.0
2015-Mar-22 10:33N 51°54' E 004°21'0 0.0
2015-Mar-22 09:33N 51°54' E 004°21'0 0.0
2015-Mar-22 08:33N 51°54' E 004°21'0 0.0
2015-Mar-22 07:33N 51°54' E 004°21'  

Dump ship's entire track history